Time;durP1;ratioP1;P1;durP2;ratioP2;P2;SDS_P1;SDS_P2;PMS_P1;PMS_P2;Temp;Humidity;BMP_temperature;BMP_pressure;BME280_temperature;BME280_humidity;BME280_pressure;Samples;Min_cycle;Max_cycle;Signal;HPM_P1;HPM_P2
2021/12/05 00:23:23;;;;;;;3.70;1.23;;;4.70;99.90;;;;;;5072807;28;20019;-74
2021/12/05 00:25:53;;;;;;;4.22;1.63;;;4.70;99.90;;;;;;5063010;28;20130;-72
2021/12/05 00:31:16;;;;;;;7.93;1.70;;;4.70;99.90;;;;;;5075871;28;20176;-74
2021/12/05 00:33:58;;;;;;;6.32;1.48;;;4.70;99.90;;;;;;5057412;28;20055;-75
2021/12/05 00:37:12;;;;;;;7.03;1.30;;;4.80;99.90;;;;;;5075926;28;20043;-74
2021/12/05 00:42:13;;;;;;;6.35;1.30;;;4.90;99.90;;;;;;5083528;28;20039;-73
2021/12/05 00:55:33;;;;;;;5.20;2.05;;;4.70;99.90;;;;;;5073781;28;20059;-75
2021/12/05 01:11:10;;;;;;;5.10;1.42;;;4.70;99.90;;;;;;5076505;28;20056;-75
2021/12/05 01:16:24;;;;;;;3.65;1.38;;;4.70;99.90;;;;;;5077027;28;20043;-75
2021/12/05 01:18:51;;;;;;;5.25;1.50;;;4.80;99.90;;;;;;5078447;28;20025;-74
2021/12/05 01:21:20;;;;;;;8.23;2.25;;;4.70;99.90;;;;;;5075471;28;20551;-74
2021/12/05 01:26:28;;;;;;;3.08;1.15;;;4.70;99.90;;;;;;5039069;28;20223;-73
2021/12/05 01:31:50;;;;;;;3.38;1.25;;;4.70;99.90;;;;;;5059521;28;20041;-73
2021/12/05 01:34:45;;;;;;;4.85;1.20;;;4.80;99.90;;;;;;5056990;28;20033;-74
2021/12/05 01:40:16;;;;;;;7.65;1.08;;;4.70;99.90;;;;;;5076184;28;20028;-74
2021/12/05 01:49:00;;;;;;;3.15;1.52;;;4.80;99.90;;;;;;5076413;28;20120;-74
2021/12/05 01:51:29;;;;;;;2.03;1.13;;;4.80;99.90;;;;;;5075532;28;20435;-72
2021/12/05 02:37:29;;;;;;;3.80;1.70;;;4.30;99.90;;;;;;5075662;28;20141;-73
2021/12/05 02:42:32;;;;;;;3.95;1.63;;;4.20;99.90;;;;;;5076391;28;20516;-73
2021/12/05 02:44:59;;;;;;;2.60;1.20;;;4.20;99.90;;;;;;5059412;28;20063;-75
2021/12/05 02:47:27;;;;;;;3.38;1.08;;;4.20;99.90;;;;;;5074263;28;20039;-74
2021/12/05 02:49:58;;;;;;;3.95;1.67;;;4.20;99.90;;;;;;5073864;28;20028;-73
2021/12/05 02:52:31;;;;;;;1.90;0.85;;;4.30;99.90;;;;;;5074438;28;20045;-74
2021/12/05 02:55:24;;;;;;;2.88;1.05;;;4.30;99.90;;;;;;5056260;28;20443;-74
2021/12/05 02:57:56;;;;;;;4.82;1.63;;;4.30;99.90;;;;;;5064572;28;20484;-74
2021/12/05 03:03:23;;;;;;;;;;;4.40;99.90;;;;;;5069161;28;20031;-74
2021/12/05 03:05:58;;;;;;;4.45;0.80;;;4.40;99.90;;;;;;5073977;28;19950;-74
2021/12/05 03:08:24;;;;;;;8.75;1.77;;;4.50;99.90;;;;;;5075417;28;20659;-74
2021/12/05 03:10:52;;;;;;;1.45;1.00;;;4.50;99.90;;;;;;5074451;28;20029;-74
2021/12/05 03:13:18;;;;;;;3.58;0.90;;;4.50;99.90;;;;;;5074852;28;20043;-73
2021/12/05 03:15:44;;;;;;;2.70;1.15;;;4.60;99.90;;;;;;5055639;28;20107;-74
2021/12/05 03:18:10;;;;;;;3.80;1.02;;;4.60;99.90;;;;;;5073311;28;20066;-73
2021/12/05 03:20:36;;;;;;;6.95;1.38;;;4.60;99.90;;;;;;5055300;28;20507;-73
2021/12/05 03:23:02;;;;;;;3.92;1.10;;;4.60;99.90;;;;;;5072621;28;20017;-73
2021/12/05 03:25:28;;;;;;;4.75;1.25;;;4.60;99.90;;;;;;5073135;28;20452;-73
2021/12/05 03:27:55;;;;;;;2.85;1.23;;;4.60;99.90;;;;;;5073614;28;20103;-75
2021/12/05 03:30:25;;;;;;;2.72;0.80;;;4.60;99.90;;;;;;5073367;28;20500;-74
2021/12/05 03:32:52;;;;;;;5.15;1.13;;;4.60;99.90;;;;;;5073271;28;20047;-74
2021/12/05 03:35:22;;;;;;;4.47;1.23;;;4.60;99.90;;;;;;5073595;28;20032;-72
2021/12/05 03:37:48;;;;;;;4.38;0.80;;;4.60;99.90;;;;;;5073182;28;20033;-74
2021/12/05 03:40:16;;;;;;;4.22;1.10;;;4.60;99.90;;;;;;5073316;28;20021;-74
2021/12/05 03:42:42;;;;;;;3.42;0.82;;;4.50;99.90;;;;;;5072883;28;20040;-75
2021/12/05 03:45:13;;;;;;;3.65;1.55;;;4.60;99.90;;;;;;5073195;28;20024;-74
2021/12/05 03:47:38;;;;;;;3.50;1.20;;;4.50;99.90;;;;;;5073037;28;20507;-74
2021/12/05 03:50:10;;;;;;;5.50;0.90;;;4.50;99.90;;;;;;5072753;28;20036;-75
2021/12/05 03:52:37;;;;;;;4.18;1.30;;;4.50;99.90;;;;;;5072582;28;20024;-73
2021/12/05 03:55:04;;;;;;;3.42;0.85;;;4.40;99.90;;;;;;5072739;28;20480;-74
2021/12/05 03:57:30;;;;;;;10.02;2.45;;;4.40;99.90;;;;;;5070370;28;20035;-73
2021/12/05 03:59:56;;;;;;;2.78;1.10;;;4.20;99.90;;;;;;5072591;28;20099;-74
2021/12/05 04:02:22;;;;;;;3.95;1.05;;;4.20;99.90;;;;;;5059951;28;20036;-74
2021/12/05 04:04:50;;;;;;;4.28;1.30;;;4.10;99.90;;;;;;5052451;28;20029;-74
2021/12/05 04:07:16;;;;;;;2.70;1.13;;;4.10;99.90;;;;;;5034490;28;20036;-73
2021/12/05 04:09:42;;;;;;;4.03;1.00;;;4.00;99.90;;;;;;5055603;28;20032;-73
2021/12/05 04:12:09;;;;;;;4.07;1.10;;;3.90;99.90;;;;;;5064176;28;20032;-74
2021/12/05 04:14:41;;;;;;;6.82;1.73;;;3.90;99.90;;;;;;5072812;28;20104;-74
2021/12/05 04:17:09;;;;;;;2.28;0.98;;;4.10;99.90;;;;;;5072526;28;20432;-74
2021/12/05 04:19:36;;;;;;;3.50;0.90;;;4.10;99.90;;;;;;5071910;28;20012;-74
2021/12/05 04:22:05;;;;;;;3.28;1.90;;;4.20;99.90;;;;;;5043418;28;20119;-74
2021/12/05 04:24:32;;;;;;;6.18;1.00;;;4.10;99.90;;;;;;5048448;28;20374;-74
2021/12/05 04:26:58;;;;;;;3.20;1.20;;;4.00;99.90;;;;;;5055410;28;20073;-74
2021/12/05 04:29:23;;;;;;;4.32;1.02;;;4.10;99.90;;;;;;5071934;28;20025;-73
2021/12/05 04:31:49;;;;;;;3.90;1.00;;;4.00;99.90;;;;;;5062481;22;20045;-72
2021/12/05 04:34:15;;;;;;;2.38;0.95;;;4.10;99.90;;;;;;5032371;28;20057;-72
2021/12/05 04:36:43;;;;;;;2.53;1.23;;;4.20;99.90;;;;;;5031847;28;20045;-71
2021/12/05 04:39:09;;;;;;;4.63;1.70;;;4.20;99.90;;;;;;5031699;28;20033;-72
2021/12/05 04:41:37;;;;;;;2.85;0.95;;;4.20;99.90;;;;;;5022318;28;20060;-72
2021/12/05 04:44:03;;;;;;;3.67;1.17;;;4.20;99.90;;;;;;5015759;28;20100;-72
2021/12/05 04:46:29;;;;;;;3.28;1.00;;;4.30;99.90;;;;;;5031045;28;20049;-72
2021/12/05 04:48:56;;;;;;;3.78;0.90;;;4.30;99.90;;;;;;5031676;28;20029;-73
2021/12/05 04:51:27;;;;;;;1.48;1.35;;;4.30;99.90;;;;;;5030776;28;20473;-72
2021/12/05 04:53:53;;;;;;;1.63;1.08;;;4.30;99.90;;;;;;5030628;28;20037;-71
2021/12/05 04:56:19;;;;;;;5.70;2.55;;;4.30;99.90;;;;;;5031627;28;20082;-72
2021/12/05 04:58:45;;;;;;;6.38;2.30;;;4.30;99.90;;;;;;5025267;28;20064;-72
2021/12/05 05:01:11;;;;;;;4.80;1.33;;;4.30;99.90;;;;;;5027499;28;20038;-72
2021/12/05 05:03:37;;;;;;;5.03;1.38;;;4.30;99.90;;;;;;5032415;28;20397;-71
2021/12/05 05:06:09;;;;;;;3.10;1.25;;;4.20;99.90;;;;;;5032441;28;20025;-73
2021/12/05 05:08:35;;;;;;;4.03;1.25;;;4.20;99.90;;;;;;5034400;28;20029;-72
2021/12/05 05:11:05;;;;;;;3.03;0.88;;;4.10;99.90;;;;;;5032928;28;20022;-73
2021/12/05 05:13:32;;;;;;;3.85;1.00;;;4.10;99.90;;;;;;5016949;28;20033;-73
2021/12/05 05:15:58;;;;;;;4.97;1.60;;;4.10;99.90;;;;;;5011913;28;20041;-72
2021/12/05 05:18:28;;;;;;;7.70;1.98;;;4.00;99.90;;;;;;5018417;28;20072;-72
2021/12/05 05:21:06;;;;;;;3.50;1.02;;;3.90;99.90;;;;;;5031927;28;20026;-72
2021/12/05 05:23:58;;;;;;;3.67;1.38;;;3.80;99.90;;;;;;5032168;28;20386;-72
2021/12/05 05:27:02;;;;;;;2.40;0.88;;;3.80;99.90;;;;;;5031893;28;20021;-72
2021/12/05 05:48:02;;;;;;;4.85;1.33;;;3.30;99.90;;;;;;4998305;28;20065;-71
2021/12/05 05:50:28;;;;;;;3.00;0.90;;;3.30;99.90;;;;;;5047871;28;20111;-72
2021/12/05 05:52:54;;;;;;;2.88;1.00;;;3.30;99.90;;;;;;5037372;28;20029;-70
2021/12/05 05:55:20;;;;;;;1.73;1.02;;;3.30;99.90;;;;;;5046550;28;20042;-70
2021/12/05 05:58:01;;;;;;;2.47;1.08;;;3.30;99.90;;;;;;5038752;28;20049;-71
2021/12/05 06:00:36;;;;;;;3.13;1.52;;;3.30;99.90;;;;;;5030907;28;20100;-71
2021/12/05 06:03:22;;;;;;;2.95;0.88;;;3.30;99.90;;;;;;5021731;28;20026;-72
2021/12/05 06:05:50;;;;;;;3.53;1.27;;;3.30;99.90;;;;;;5039416;28;20105;-72
2021/12/05 06:08:16;;;;;;;1.40;0.73;;;3.30;99.90;;;;;;5050739;28;20025;-73
2021/12/05 06:10:42;;;;;;;2.53;1.20;;;3.40;99.90;;;;;;5051832;28;20033;-72
2021/12/05 06:13:08;;;;;;;2.72;0.85;;;3.40;99.90;;;;;;5047304;28;20221;-69
2021/12/05 06:15:33;;;;;;;3.72;0.90;;;3.40;99.90;;;;;;5057439;28;20026;-71
2021/12/05 06:17:59;;;;;;;2.13;1.25;;;3.50;99.90;;;;;;5048757;28;20021;-72
2021/12/05 06:20:28;;;;;;;6.72;1.02;;;3.60;99.90;;;;;;5023884;28;20493;-73
2021/12/05 06:22:54;;;;;;;4.82;2.08;;;3.60;99.90;;;;;;5023576;28;20092;-72
2021/12/05 06:25:24;;;;;;;2.53;0.80;;;3.50;99.90;;;;;;5047164;28;20018;-71
2021/12/05 06:27:52;;;;;;;2.38;0.90;;;3.60;99.90;;;;;;5050062;28;20093;-71
2021/12/05 06:30:29;;;;;;;2.13;1.13;;;3.60;99.90;;;;;;5041489;28;20032;-72
2021/12/05 06:48:52;;;;;;;0.98;0.70;;;3.40;99.90;;;;;;5033953;28;20045;-70
2021/12/05 06:51:23;;;;;;;2.85;0.98;;;3.40;99.90;;;;;;5034019;28;20032;-71
2021/12/05 06:53:49;;;;;;;1.55;0.82;;;3.30;99.90;;;;;;5034242;28;20022;-72
2021/12/05 06:56:15;;;;;;;2.78;0.90;;;3.30;99.90;;;;;;5033878;28;20026;-71
2021/12/05 06:58:40;;;;;;;5.65;1.30;;;3.20;99.90;;;;;;5033477;28;20034;-71
2021/12/05 07:01:08;;;;;;;2.30;1.63;;;3.20;99.90;;;;;;5033783;28;20373;-71
2021/12/05 07:03:37;;;;;;;1.35;0.75;;;3.10;99.90;;;;;;5015539;28;20030;-72
2021/12/05 07:06:07;;;;;;;2.58;1.05;;;3.00;99.90;;;;;;5014269;28;20100;-73
2021/12/05 07:08:36;;;;;;;3.08;1.02;;;3.00;99.90;;;;;;5013965;28;20030;-72
2021/12/05 07:16:48;;;;;;;4.88;1.20;;;3.00;99.90;;;;;;5014415;28;20032;-71
2021/12/05 07:21:58;;;;;;;2.60;1.17;;;3.20;99.90;;;;;;5042384;28;20029;-71
2021/12/05 07:40:28;;;;;;;2.75;1.00;;;3.50;99.90;;;;;;5027246;28;20547;-72
2021/12/05 07:43:05;;;;;;;4.43;1.27;;;3.40;99.90;;;;;;5036252;28;20022;-72
2021/12/05 07:45:36;;;;;;;3.58;1.20;;;3.50;99.90;;;;;;5034317;28;20022;-72
2021/12/05 07:48:12;;;;;;;2.58;0.90;;;3.40;99.90;;;;;;5034990;28;20029;-72
2021/12/05 07:50:51;;;;;;;3.92;1.23;;;3.40;99.90;;;;;;5026646;28;20025;-72
2021/12/05 07:53:29;;;;;;;3.60;1.40;;;3.40;99.90;;;;;;5026724;28;20026;-72
2021/12/05 07:56:01;;;;;;;4.10;1.38;;;3.50;99.90;;;;;;5032065;28;20465;-73
2021/12/05 07:58:48;;;;;;;4.53;1.67;;;3.50;99.90;;;;;;5024100;28;20034;-73
2021/12/05 08:14:43;;;;;;;3.83;0.90;;;3.70;99.90;;;;;;5034442;28;20084;-71
2021/12/05 08:17:16;;;;;;;6.30;1.23;;;3.70;99.90;;;;;;5032421;28;20098;-72
2021/12/05 08:19:41;;;;;;;4.70;1.48;;;3.80;99.90;;;;;;5033326;28;20492;-74
2021/12/05 08:22:08;;;;;;;3.75;1.67;;;3.80;99.90;;;;;;5034782;28;20026;-72
2021/12/05 08:24:37;;;;;;;4.57;1.35;;;3.90;99.90;;;;;;5034148;28;20018;-72
2021/12/05 08:27:05;;;;;;;1.90;1.00;;;3.80;99.90;;;;;;5033624;28;20017;-73
2021/12/05 08:29:41;;;;;;;4.75;1.10;;;3.90;99.90;;;;;;5033525;28;20025;-72
2021/12/05 08:34:53;;;;;;;4.30;1.42;;;3.90;99.90;;;;;;5033689;28;20029;-71
2021/12/05 09:21:26;;;;;;;8.38;1.55;;;4.90;99.90;;;;;;5037487;28;20031;-72
2021/12/05 09:40:26;;;;;;;2.05;1.27;;;5.20;99.90;;;;;;5041077;28;20056;-70
2021/12/05 10:15:29;;;;;;;3.28;0.70;;;6.60;99.90;;;;;;5016421;28;20040;-72
2021/12/05 10:37:48;;;;;;;0.95;0.50;;;7.50;99.90;;;;;;5105051;28;20039;-75
2021/12/05 10:40:21;;;;;;;1.30;0.70;;;7.50;99.90;;;;;;5106830;28;20020;-75
2021/12/05 10:42:50;;;;;;;3.30;0.85;;;7.40;99.90;;;;;;5086094;28;20055;-73
2021/12/05 10:45:19;;;;;;;1.23;0.57;;;7.20;99.90;;;;;;5105838;28;20078;-74
2021/12/05 10:47:48;;;;;;;1.38;0.70;;;7.40;99.90;;;;;;5103461;28;20056;-73
2021/12/05 10:50:37;;;;;;;3.08;0.73;;;7.30;99.90;;;;;;5110962;28;20588;-75
2021/12/05 10:53:51;;;;;;;2.53;1.00;;;7.40;99.90;;;;;;5107558;28;20087;-75
2021/12/05 10:56:23;;;;;;;1.55;0.88;;;7.50;99.90;;;;;;5077924;28;20078;-75
2021/12/05 10:58:52;;;;;;;8.52;0.77;;;7.40;99.90;;;;;;5090797;28;20035;-74
2021/12/05 11:01:45;;;;;;;2.70;0.88;;;7.40;99.90;;;;;;5083321;28;20099;-74
2021/12/05 11:04:39;;;;;;;1.48;0.88;;;7.40;99.90;;;;;;5069511;28;20017;-74
2021/12/05 11:07:13;;;;;;;2.45;0.85;;;7.40;99.90;;;;;;5081769;28;20078;-73
2021/12/05 11:09:42;;;;;;;1.67;1.00;;;7.50;99.90;;;;;;5086034;28;20023;-76
2021/12/05 11:12:23;;;;;;;1.95;0.85;;;7.30;99.90;;;;;;5084225;28;20027;-74
2021/12/05 11:15:04;;;;;;;1.45;0.63;;;7.30;99.90;;;;;;5096805;28;20024;-74
2021/12/05 11:17:32;;;;;;;3.63;0.55;;;7.30;99.90;;;;;;5083987;28;20389;-73
2021/12/05 11:20:17;;;;;;;2.72;0.82;;;7.50;99.90;;;;;;5061863;28;20016;-74
2021/12/05 11:22:45;;;;;;;2.10;0.82;;;7.40;99.90;;;;;;5075443;28;20469;-73
2021/12/05 11:25:25;;;;;;;1.77;0.70;;;7.30;99.90;;;;;;5078491;28;20052;-74
2021/12/05 11:28:02;;;;;;;2.13;0.70;;;7.20;99.90;;;;;;5092036;28;20035;-73
2021/12/05 11:30:37;;;;;;;0.65;0.47;;;7.20;99.90;;;;;;5076614;28;20434;-75
2021/12/05 11:33:20;;;;;;;4.00;0.80;;;7.20;99.90;;;;;;5076921;28;20130;-73
2021/12/05 11:36:01;;;;;;;3.60;1.45;;;7.10;99.90;;;;;;5077036;28;20025;-74
2021/12/05 11:38:30;;;;;;;1.23;0.60;;;7.20;99.90;;;;;;5062524;28;20024;-74
2021/12/05 11:41:06;;;;;;;1.50;0.60;;;7.40;99.90;;;;;;5091961;28;20036;-73
2021/12/05 11:43:36;;;;;;;1.48;1.05;;;7.50;99.90;;;;;;5075813;28;20016;-72
2021/12/05 11:46:11;;;;;;;1.88;0.90;;;7.60;99.90;;;;;;5094298;28;20020;-74
2021/12/05 11:48:36;;;;;;;3.33;0.90;;;7.70;99.90;;;;;;5080215;28;20508;-74
2021/12/05 11:51:21;;;;;;;1.75;0.70;;;7.40;99.90;;;;;;5076148;28;20028;-74
2021/12/05 11:53:54;;;;;;;2.00;0.55;;;7.20;99.90;;;;;;5075324;28;20055;-73
2021/12/05 11:56:39;;;;;;;1.95;0.93;;;7.30;99.90;;;;;;5056346;28;20043;-74
2021/12/05 11:59:23;;;;;;;1.27;0.90;;;7.10;99.90;;;;;;5075051;28;20111;-73
2021/12/05 12:02:06;;;;;;;1.85;0.70;;;7.10;99.90;;;;;;5075254;28;20033;-75
2021/12/05 12:04:47;;;;;;;1.95;0.82;;;7.00;99.90;;;;;;5057565;28;20025;-75
2021/12/05 12:07:35;;;;;;;1.38;0.82;;;7.10;99.90;;;;;;5076794;28;20016;-73
2021/12/05 12:10:08;;;;;;;1.52;0.85;;;6.90;99.90;;;;;;5060576;28;20028;-73
2021/12/05 12:12:34;;;;;;;0.55;0.50;;;6.80;99.90;;;;;;5087951;28;20423;-75
2021/12/05 12:14:59;;;;;;;1.33;0.75;;;6.70;99.90;;;;;;5076372;28;20025;-74
2021/12/05 12:17:25;;;;;;;2.55;0.98;;;6.50;99.90;;;;;;5078511;28;20043;-74
2021/12/05 12:19:54;;;;;;;3.13;0.77;;;6.50;99.90;;;;;;5083908;28;20087;-72
2021/12/05 12:22:22;;;;;;;2.72;1.23;;;6.60;99.90;;;;;;5073829;28;20094;-74
2021/12/05 12:24:55;;;;;;;1.75;0.90;;;6.60;99.90;;;;;;5092390;28;20024;-74
2021/12/05 12:27:21;;;;;;;4.85;0.98;;;6.70;99.90;;;;;;5094664;28;20044;-75
2021/12/05 12:29:49;;;;;;;2.85;1.33;;;6.80;99.90;;;;;;5094744;28;20123;-73
2021/12/05 12:32:19;;;;;;;0.85;0.85;;;6.80;99.90;;;;;;5094505;28;20024;-74
2021/12/05 12:34:45;;;;;;;1.15;0.73;;;6.70;99.90;;;;;;5076677;28;20063;-74
2021/12/05 12:37:13;;;;;;;1.60;0.93;;;6.80;99.90;;;;;;5093557;28;20387;-75
2021/12/05 12:39:42;;;;;;;3.00;1.00;;;6.90;99.90;;;;;;5059292;28;20021;-74
2021/12/05 12:42:15;;;;;;;1.85;0.90;;;7.00;99.90;;;;;;5069098;28;20135;-74
2021/12/05 12:44:59;;;;;;;1.58;0.80;;;7.20;99.90;;;;;;5073488;28;20025;-74
2021/12/05 12:47:40;;;;;;;1.52;0.80;;;7.20;99.90;;;;;;5073030;28;20025;-74
2021/12/05 12:50:29;;;;;;;0.52;0.52;;;7.20;99.90;;;;;;5073631;28;20059;-74
2021/12/05 12:53:17;;;;;;;3.58;1.90;;;7.10;99.90;;;;;;5055414;28;20024;-73
2021/12/05 12:55:55;;;;;;;1.52;0.68;;;7.20;99.90;;;;;;5073450;28;20024;-75
2021/12/05 12:58:42;;;;;;;1.80;0.70;;;7.10;99.90;;;;;;5073647;28;20503;-74
2021/12/05 13:09:57;;;;;;;1.42;0.70;;;7.10;99.90;;;;;;5082999;28;20065;-74
2021/12/05 13:10:11;;;;;;;1.13;0.60;;;7.10;99.90;;;;;;5093336;28;20027;-74
2021/12/05 13:12:44;;;;;;;0.95;0.60;;;7.40;99.90;;;;;;5093545;28;20365;-73
2021/12/05 13:15:37;;;;;;;1.30;0.60;;;7.40;99.90;;;;;;5080600;28;20040;-74
2021/12/05 13:18:13;;;;;;;1.05;0.65;;;7.40;99.90;;;;;;5082443;28;20116;-73
2021/12/05 13:20:42;;;;;;;0.93;0.40;;;7.80;99.90;;;;;;5063491;28;20017;-76
2021/12/05 13:23:12;;;;;;;0.70;0.50;;;7.90;99.90;;;;;;5073484;28;20025;-73
2021/12/05 13:26:09;;;;;;;0.57;0.40;;;7.70;99.90;;;;;;5055515;28;20017;-75
2021/12/05 13:28:56;;;;;;;1.02;0.40;;;7.60;99.90;;;;;;5086234;28;20020;-74
2021/12/05 13:31:28;;;;;;;0.88;0.57;;;7.80;99.90;;;;;;5097355;28;20043;-75
2021/12/05 13:34:24;;;;;;;2.00;1.25;;;7.70;99.90;;;;;;5078302;28;20028;-74
2021/12/05 13:37:04;;;;;;;5.05;1.83;;;7.60;99.90;;;;;;5073528;28;20496;-75
2021/12/05 13:39:52;;;;;;;0.53;0.53;;;7.70;99.90;;;;;;5073993;28;20476;-74
2021/12/05 13:42:24;;;;;;;0.45;0.40;;;7.60;99.90;;;;;;5091554;28;20250;-73
2021/12/05 13:45:07;;;;;;;2.53;1.00;;;7.80;99.90;;;;;;5094830;28;20020;-75
2021/12/05 13:48:08;;;;;;;0.93;0.77;;;7.80;99.90;;;;;;5095863;28;20028;-75
2021/12/05 13:50:36;;;;;;;1.40;0.77;;;7.80;99.90;;;;;;5073434;28;20020;-74
2021/12/05 13:53:02;;;;;;;1.55;0.70;;;7.80;99.90;;;;;;5056272;28;20036;-73
2021/12/05 13:55:46;;;;;;;0.77;0.52;;;7.70;99.90;;;;;;5074509;28;20029;-75
2021/12/05 13:58:36;;;;;;;1.15;0.60;;;7.70;99.90;;;;;;5085531;28;20036;-75
2021/12/05 14:01:20;;;;;;;0.75;0.45;;;7.60;99.90;;;;;;5086052;28;20353;-74
2021/12/05 14:03:53;;;;;;;1.30;0.60;;;7.90;99.90;;;;;;5057025;28;20070;-74
2021/12/05 14:06:44;;;;;;;0.85;0.60;;;7.60;99.90;;;;;;5074654;28;20017;-74
2021/12/05 14:09:17;;;;;;;1.30;0.70;;;7.40;99.90;;;;;;5065956;28;20103;-75
2021/12/05 14:11:53;;;;;;;1.08;0.60;;;7.20;99.90;;;;;;5078519;28;20409;-74
2021/12/05 14:14:24;;;;;;;0.70;0.70;;;7.00;99.90;;;;;;5084193;28;20026;-75
2021/12/05 14:16:52;;;;;;;1.05;0.65;;;6.80;99.90;;;;;;5093753;28;20016;-74
2021/12/05 14:19:20;;;;;;;1.30;0.98;;;6.70;99.90;;;;;;5087087;28;20112;-75
2021/12/05 14:21:49;;;;;;;1.13;0.75;;;6.60;99.90;;;;;;5078090;28;20027;-76
2021/12/05 14:24:17;;;;;;;2.00;0.90;;;6.50;99.90;;;;;;5079364;28;20474;-74
2021/12/05 14:26:45;;;;;;;4.00;1.52;;;6.50;99.90;;;;;;5079322;28;20024;-74
2021/12/05 14:29:14;;;;;;;0.65;0.65;;;6.30;99.90;;;;;;5098717;28;20054;-74
2021/12/05 14:31:43;;;;;;;3.10;1.02;;;6.10;99.90;;;;;;5097898;28;20033;-74
2021/12/05 14:34:11;;;;;;;1.85;0.90;;;6.10;99.90;;;;;;5069770;28;20025;-74
2021/12/05 14:36:42;;;;;;;3.63;0.80;;;6.20;99.90;;;;;;5059503;28;20031;-75
2021/12/05 14:39:27;;;;;;;1.52;1.02;;;6.40;99.90;;;;;;5059777;28;20066;-74
2021/12/05 14:41:58;;;;;;;1.75;0.70;;;6.80;99.90;;;;;;5083811;28;20024;-75
2021/12/05 14:44:23;;;;;;;1.55;0.70;;;6.70;99.90;;;;;;5080466;28;20029;-75
2021/12/05 14:46:57;;;;;;;1.40;0.90;;;6.70;99.90;;;;;;5077118;28;20411;-74
2021/12/05 14:49:25;;;;;;;2.72;1.00;;;6.60;99.90;;;;;;5076428;28;20029;-73
2021/12/05 14:51:52;;;;;;;1.98;0.98;;;6.70;99.90;;;;;;5078878;28;20028;-74
2021/12/05 14:54:21;;;;;;;1.42;1.20;;;6.60;99.90;;;;;;5080759;28;20078;-74
2021/12/05 14:56:47;;;;;;;2.17;1.30;;;6.60;99.90;;;;;;5086466;28;20025;-75
2021/12/05 14:59:14;;;;;;;4.55;2.05;;;6.50;99.90;;;;;;5074005;28;20025;-74
2021/12/05 15:01:43;;;;;;;1.50;0.90;;;6.30;99.90;;;;;;5091231;28;20016;-74
2021/12/05 15:04:10;;;;;;;2.97;0.82;;;6.00;99.90;;;;;;5092093;28;20047;-74
2021/12/05 15:06:41;;;;;;;1.25;1.02;;;5.90;99.90;;;;;;5070713;28;20016;-75
2021/12/05 15:09:33;;;;;;;2.05;1.30;;;5.80;99.90;;;;;;5086799;28;20040;-77
2021/12/05 15:12:06;;;;;;;2.38;1.08;;;5.90;99.90;;;;;;5090095;28;20027;-73
2021/12/05 15:14:34;;;;;;;2.22;1.10;;;5.90;99.90;;;;;;5086571;28;20025;-74
2021/12/05 15:17:04;;;;;;;1.65;1.25;;;5.90;99.90;;;;;;5057753;28;20042;-75
2021/12/05 15:19:30;;;;;;;4.85;1.25;;;5.70;99.90;;;;;;5074736;28;20079;-74
2021/12/05 15:21:56;;;;;;;4.43;2.00;;;5.80;99.90;;;;;;5076610;28;20020;-74
2021/12/05 15:24:25;;;;;;;31.02;20.67;;;5.80;99.90;;;;;;5076056;28;20441;-73
2021/12/05 15:26:52;;;;;;;4.80;1.92;;;5.60;99.90;;;;;;5075049;28;20025;-74
2021/12/05 15:29:17;;;;;;;5.55;1.38;;;5.60;99.90;;;;;;5057831;28;20028;-74
2021/12/05 15:31:44;;;;;;;2.33;1.35;;;5.60;99.90;;;;;;5074844;28;20120;-74
2021/12/05 15:34:22;;;;;;;1.83;1.30;;;5.70;99.90;;;;;;5056780;28;20230;-75
2021/12/05 15:36:48;;;;;;;6.88;1.58;;;5.70;99.90;;;;;;5058086;28;20492;-73
2021/12/05 15:39:19;;;;;;;1.83;1.42;;;5.50;99.90;;;;;;5059230;28;20033;-73
2021/12/05 15:41:54;;;;;;;2.22;1.38;;;5.40;99.90;;;;;;5081433;28;20028;-73
2021/12/05 15:44:32;;;;;;;2.40;1.73;;;5.20;99.90;;;;;;5070977;28;20024;-73
2021/12/05 15:47:14;;;;;;;1.65;1.20;;;5.10;99.90;;;;;;5071325;28;20115;-75
2021/12/05 15:50:12;;;;;;;1.67;1.45;;;5.10;99.90;;;;;;5081614;28;20032;-74
2021/12/05 15:52:48;;;;;;;8.05;1.60;;;5.10;99.90;;;;;;5053873;28;20487;-74
2021/12/05 15:55:46;;;;;;;2.15;1.45;;;5.10;99.90;;;;;;5095541;28;20032;-74
2021/12/05 15:58:17;;;;;;;6.00;1.42;;;5.10;99.90;;;;;;5076115;28;20044;-74
2021/12/05 16:00:51;;;;;;;1.63;1.20;;;5.00;99.90;;;;;;5094738;28;20012;-74
2021/12/05 16:03:26;;;;;;;2.42;1.60;;;4.90;99.90;;;;;;5094286;28;20044;-74
2021/12/05 16:05:58;;;;;;;2.90;1.50;;;4.70;99.90;;;;;;5086605;28;20499;-74
2021/12/05 16:08:28;;;;;;;2.30;1.67;;;4.80;99.90;;;;;;5062473;28;20042;-74
2021/12/05 16:10:58;;;;;;;2.87;1.27;;;4.80;99.90;;;;;;5094832;28;20030;-74
2021/12/05 16:13:31;;;;;;;3.75;1.50;;;4.70;99.90;;;;;;5090806;28;20024;-75
2021/12/05 16:16:12;;;;;;;1.90;1.25;;;4.80;99.90;;;;;;5082782;28;20020;-74
2021/12/05 16:18:40;;;;;;;4.68;2.13;;;4.80;99.90;;;;;;5071661;28;20190;-74
2021/12/05 16:21:29;;;;;;;3.95;2.13;;;4.80;99.90;;;;;;5068876;28;20082;-75
2021/12/05 16:24:02;;;;;;;4.63;2.05;;;4.80;99.90;;;;;;5075023;28;20029;-75
2021/12/05 16:26:29;;;;;;;3.15;2.05;;;4.90;99.90;;;;;;5074148;28;20044;-74
2021/12/05 16:29:16;;;;;;;3.72;2.45;;;4.90;99.90;;;;;;5055474;28;20040;-74
2021/12/05 16:31:45;;;;;;;2.75;2.17;;;4.90;99.90;;;;;;5084284;22;20049;-74
2021/12/05 16:34:14;;;;;;;2.88;2.15;;;5.00;99.90;;;;;;5057159;28;20060;-75
2021/12/05 16:36:47;;;;;;;10.07;2.20;;;4.90;99.90;;;;;;5060982;28;20044;-75
2021/12/05 16:39:19;;;;;;;2.33;1.92;;;5.00;99.90;;;;;;5068730;28;20029;-74
2021/12/05 16:41:48;;;;;;;3.15;2.20;;;5.20;99.90;;;;;;5065188;28;20045;-74
2021/12/05 16:44:19;;;;;;;3.58;2.15;;;5.20;99.90;;;;;;5064170;28;20071;-74
2021/12/05 16:47:10;;;;;;;2.53;2.08;;;5.10;99.90;;;;;;5069181;28;20051;-75
2021/12/05 16:49:39;;;;;;;4.07;2.45;;;5.00;99.90;;;;;;5059273;28;20056;-73
2021/12/05 16:52:08;;;;;;;2.55;2.33;;;4.90;99.90;;;;;;5041854;28;20496;-74
2021/12/05 16:54:43;;;;;;;3.53;2.63;;;4.80;99.90;;;;;;5033203;28;20113;-74
2021/12/05 16:57:17;;;;;;;2.95;2.22;;;4.80;99.90;;;;;;5052685;28;20029;-74
2021/12/05 16:59:49;;;;;;;3.45;2.40;;;4.80;99.90;;;;;;5034752;28;20484;-75
2021/12/05 17:02:44;;;;;;;6.25;2.83;;;4.80;99.90;;;;;;5052911;28;20052;-74
2021/12/05 17:05:26;;;;;;;3.22;2.92;;;4.70;99.90;;;;;;5050842;28;20274;-73
2021/12/05 17:10:45;;;;;;;5.00;3.17;;;4.40;99.90;;;;;;5052450;28;20035;-74
2021/12/05 17:13:26;;;;;;;3.78;2.75;;;4.40;99.90;;;;;;5053760;28;20021;-74
2021/12/05 17:15:55;;;;;;;2.83;2.58;;;4.30;99.90;;;;;;5048736;28;20032;-74
2021/12/05 17:18:31;;;;;;;4.82;3.05;;;4.30;99.90;;;;;;5055909;28;20032;-75
2021/12/05 17:21:19;;;;;;;4.85;3.40;;;4.40;99.90;;;;;;5053045;28;20032;-73
2021/12/05 17:24:12;;;;;;;4.30;2.90;;;4.40;99.90;;;;;;5052798;28;20021;-75
2021/12/05 17:26:44;;;;;;;4.03;3.58;;;4.40;99.90;;;;;;5053601;28;20020;-74
2021/12/05 17:29:20;;;;;;;4.10;3.10;;;4.30;99.90;;;;;;5052165;28;20075;-74
2021/12/05 17:31:57;;;;;;;3.65;2.53;;;4.30;99.90;;;;;;5041633;28;20060;-73
2021/12/05 17:34:33;;;;;;;3.47;2.60;;;4.30;99.90;;;;;;5032459;28;20025;-73
2021/12/05 17:37:05;;;;;;;4.85;2.95;;;4.30;99.90;;;;;;5028905;28;20048;-74
2021/12/05 17:39:33;;;;;;;5.03;3.63;;;4.20;99.90;;;;;;5042426;28;20028;-74
2021/12/05 17:42:03;;;;;;;6.38;3.58;;;4.40;99.90;;;;;;5050144;28;20027;-75
2021/12/05 17:44:29;;;;;;;4.38;3.65;;;4.50;99.90;;;;;;5048246;28;20029;-77
2021/12/05 17:46:58;;;;;;;3.72;2.88;;;4.40;99.90;;;;;;5046531;28;20048;-76
2021/12/05 17:49:27;;;;;;;4.47;3.50;;;4.40;99.90;;;;;;5042980;28;20074;-76
2021/12/05 17:51:53;;;;;;;4.03;2.58;;;4.30;99.90;;;;;;5051478;28;20449;-77
2021/12/05 17:54:36;;;;;;;3.97;2.85;;;4.50;99.90;;;;;;5023536;28;20036;-77
2021/12/05 17:57:10;;;;;;;4.82;2.35;;;4.50;99.90;;;;;;5050405;28;20504;-77
2021/12/05 17:59:49;;;;;;;2.63;2.15;;;4.50;99.90;;;;;;5049367;28;20037;-77
2021/12/05 18:05:08;;;;;;;5.25;3.42;;;4.40;99.90;;;;;;5049979;28;20389;-76
2021/12/05 18:07:34;;;;;;;4.43;3.47;;;4.50;99.90;;;;;;5052818;28;20067;-77
2021/12/05 18:10:00;;;;;;;6.13;3.13;;;4.40;99.90;;;;;;5039534;28;20075;-77
2021/12/05 18:12:34;;;;;;;20.40;13.95;;;4.30;99.90;;;;;;5055537;28;20047;-77
2021/12/05 18:15:05;;;;;;;21.00;11.95;;;4.20;99.90;;;;;;5047723;28;20128;-77
2021/12/05 18:17:30;;;;;;;9.07;6.07;;;4.20;99.90;;;;;;5048413;28;20029;-77
2021/12/05 18:19:56;;;;;;;5.20;3.60;;;4.10;99.90;;;;;;5046135;28;20033;-77
2021/12/05 18:22:22;;;;;;;8.10;5.03;;;4.00;99.90;;;;;;5033136;28;20017;-77
2021/12/05 18:24:47;;;;;;;6.35;5.63;;;3.90;99.90;;;;;;5054718;28;20736;-78
2021/12/05 18:27:14;;;;;;;10.00;5.22;;;4.00;99.90;;;;;;5044941;28;20034;-78
2021/12/05 18:29:40;;;;;;;6.93;4.97;;;4.00;99.90;;;;;;5028744;28;20036;-74
2021/12/05 18:32:06;;;;;;;7.95;6.70;;;4.00;99.90;;;;;;5063286;28;20100;-77
2021/12/05 18:34:32;;;;;;;7.30;5.40;;;3.90;99.90;;;;;;5055848;28;20059;-75
2021/12/05 18:37:04;;;;;;;7.00;5.40;;;3.90;99.90;;;;;;5058857;28;20033;-77
2021/12/05 18:39:38;;;;;;;7.32;6.20;;;3.80;99.90;;;;;;5057525;28;20032;-77
2021/12/05 18:42:08;;;;;;;8.50;6.65;;;3.80;99.90;;;;;;5036548;28;20025;-77
2021/12/05 18:44:39;;;;;;;9.40;7.47;;;3.80;99.90;;;;;;5049217;28;20103;-77